Time;durP1;ratioP1;P1;durP2;ratioP2;P2;SDS_P1;SDS_P2;PMS_P1;PMS_P2;Temp;Humidity;BMP_temperature;BMP_pressure;BME280_temperature;BME280_humidity;BME280_pressure;Samples;Min_cycle;Max_cycle;Signal;HPM_P1;HPM_P2
2023/04/24 00:01:25;;;;;;;2.60;1.30;;;13.30;99.90;;;;;;5042644;28;20465;-87
2023/04/24 00:03:52;;;;;;;1.80;1.10;;;13.40;99.90;;;;;;5064639;28;20492;-88
2023/04/24 00:06:19;;;;;;;4.33;1.40;;;13.10;99.90;;;;;;5051511;28;20536;-88
2023/04/24 00:08:47;;;;;;;1.80;0.90;;;13.10;99.90;;;;;;5051955;28;20523;-88
2023/04/24 00:11:14;;;;;;;1.30;0.70;;;12.90;99.90;;;;;;5051725;28;20433;-87
2023/04/24 00:13:41;;;;;;;1.30;1.00;;;12.80;99.90;;;;;;5051435;28;20472;-87
2023/04/24 00:16:08;;;;;;;4.83;0.90;;;12.60;99.90;;;;;;5054347;28;20598;-88
2023/04/24 00:18:35;;;;;;;1.87;1.20;;;12.40;99.90;;;;;;5055020;28;20543;-88
2023/04/24 00:21:02;;;;;;;2.23;1.20;;;12.20;99.90;;;;;;5055205;28;20504;-87
2023/04/24 00:23:29;;;;;;;1.80;1.10;;;12.00;99.90;;;;;;5055754;28;20477;-89
2023/04/24 00:25:57;;;;;;;1.20;0.97;;;11.80;99.90;;;;;;5064109;28;20484;-87
2023/04/24 00:28:24;;;;;;;1.60;1.00;;;11.70;99.90;;;;;;5060681;28;20504;-87
2023/04/24 00:30:52;;;;;;;1.40;1.00;;;11.60;99.90;;;;;;5055245;28;20440;-87
2023/04/24 00:33:18;;;;;;;1.40;1.00;;;11.70;99.90;;;;;;5055173;28;20906;-87
2023/04/24 00:35:45;;;;;;;2.60;0.70;;;11.60;99.90;;;;;;5055443;28;20535;-87
2023/04/24 00:38:12;;;;;;;1.13;0.70;;;11.60;99.90;;;;;;5055088;28;20521;-87
2023/04/24 00:40:39;;;;;;;1.20;0.73;;;11.50;99.90;;;;;;5055074;28;20506;-88
2023/04/24 00:43:08;;;;;;;1.10;0.80;;;11.40;99.90;;;;;;5054748;28;20452;-86
2023/04/24 00:45:35;;;;;;;1.70;1.13;;;11.40;99.90;;;;;;5056323;28;20446;-86
2023/04/24 00:48:02;;;;;;;1.13;0.90;;;11.30;99.90;;;;;;5055075;28;20423;-87
2023/04/24 00:50:30;;;;;;;1.00;0.70;;;11.30;99.90;;;;;;5055603;28;20547;-86
2023/04/24 00:52:57;;;;;;;1.10;0.73;;;11.20;99.90;;;;;;5054589;28;21075;-87
2023/04/24 00:55:26;;;;;;;1.63;1.00;;;11.00;99.90;;;;;;5056225;28;20508;-86
2023/04/24 00:57:53;;;;;;;2.17;0.97;;;10.90;99.90;;;;;;5055676;28;20451;-86
2023/04/24 01:00:22;;;;;;;1.10;0.80;;;10.70;99.90;;;;;;5056080;28;20509;-87
2023/04/24 01:02:51;;;;;;;2.40;0.70;;;10.60;99.90;;;;;;5055153;28;20468;-87
2023/04/24 01:05:18;;;;;;;1.10;0.80;;;10.50;99.90;;;;;;5054796;28;20458;-87
2023/04/24 01:07:48;;;;;;;1.00;0.70;;;10.70;99.90;;;;;;5054755;28;20507;-87
2023/04/24 01:10:17;;;;;;;1.30;0.80;;;10.50;99.90;;;;;;5055753;28;20438;-86
2023/04/24 01:12:44;;;;;;;2.40;1.27;;;10.50;99.90;;;;;;5055065;28;20497;-87
2023/04/24 01:15:11;;;;;;;2.67;1.07;;;10.40;99.90;;;;;;5055102;28;20527;-87
2023/04/24 01:17:40;;;;;;;2.07;0.87;;;10.30;99.90;;;;;;5055511;28;20477;-88
2023/04/24 01:20:09;;;;;;;1.10;0.77;;;10.30;99.90;;;;;;5053918;28;20530;-85
2023/04/24 01:22:37;;;;;;;1.00;0.60;;;10.30;99.90;;;;;;5054062;28;20468;-85
2023/04/24 01:25:05;;;;;;;0.90;0.50;;;10.20;99.90;;;;;;5053441;28;20478;-85
2023/04/24 01:27:32;;;;;;;1.00;0.63;;;10.20;99.90;;;;;;5054395;28;20454;-86
2023/04/24 01:29:59;;;;;;;0.90;0.50;;;10.20;99.90;;;;;;5054161;28;20504;-85
2023/04/24 01:32:27;;;;;;;1.00;0.70;;;10.40;99.90;;;;;;5053257;28;20529;-86
2023/04/24 01:34:55;;;;;;;1.53;0.50;;;10.20;99.90;;;;;;5053415;28;20478;-86
2023/04/24 01:37:21;;;;;;;1.00;0.50;;;10.20;99.90;;;;;;5053489;28;20448;-85
2023/04/24 01:39:50;;;;;;;1.10;0.67;;;10.30;99.90;;;;;;5052995;28;20509;-85
2023/04/24 01:42:17;;;;;;;1.10;0.60;;;10.10;99.90;;;;;;5053372;28;20493;-86
2023/04/24 01:44:45;;;;;;;1.20;0.50;;;10.10;99.90;;;;;;5053025;28;20462;-85
2023/04/24 01:47:12;;;;;;;1.20;0.70;;;10.30;99.90;;;;;;5052891;28;20477;-85
2023/04/24 01:49:39;;;;;;;1.10;0.57;;;10.00;99.90;;;;;;5053215;28;20467;-86
2023/04/24 01:52:06;;;;;;;1.90;0.50;;;9.90;99.90;;;;;;5052810;28;20496;-85
2023/04/24 01:54:34;;;;;;;0.90;0.60;;;9.80;99.90;;;;;;5052756;28;20447;-85
2023/04/24 01:57:02;;;;;;;0.90;0.50;;;9.80;99.90;;;;;;5052695;28;20450;-85
2023/04/24 01:59:30;;;;;;;0.90;0.53;;;9.70;99.90;;;;;;5052644;28;20445;-85
2023/04/24 02:01:57;;;;;;;1.13;0.50;;;9.60;99.90;;;;;;5052712;28;20467;-85
2023/04/24 02:04:24;;;;;;;1.73;0.50;;;9.30;99.90;;;;;;5062069;28;20450;-85
2023/04/24 02:06:51;;;;;;;0.93;0.43;;;9.50;99.90;;;;;;5054099;28;20525;-86
2023/04/24 02:09:18;;;;;;;1.10;0.50;;;9.50;99.90;;;;;;5053361;28;20539;-86
2023/04/24 02:11:45;;;;;;;2.70;0.93;;;9.80;99.90;;;;;;5052539;28;20447;-86
2023/04/24 02:14:13;;;;;;;1.00;0.60;;;10.10;99.90;;;;;;5052402;28;20510;-86
2023/04/24 02:16:40;;;;;;;1.67;0.70;;;10.30;99.90;;;;;;5052742;28;20453;-86
2023/04/24 02:19:07;;;;;;;1.20;0.70;;;10.30;99.90;;;;;;5052127;28;20556;-85
2023/04/24 02:21:34;;;;;;;1.40;0.90;;;9.70;99.90;;;;;;5052245;28;20570;-85
2023/04/24 02:24:01;;;;;;;1.50;0.60;;;9.90;99.90;;;;;;5052663;28;21058;-86
2023/04/24 02:26:28;;;;;;;1.37;0.70;;;9.90;99.90;;;;;;5052088;28;20540;-85
2023/04/24 02:28:55;;;;;;;2.53;1.10;;;10.10;99.90;;;;;;5052962;28;20434;-84
2023/04/24 02:31:24;;;;;;;2.47;0.80;;;9.50;99.90;;;;;;5051779;28;20930;-86
2023/04/24 02:33:51;;;;;;;3.10;0.70;;;9.70;99.90;;;;;;5052501;28;20550;-85
2023/04/24 02:36:18;;;;;;;1.00;0.70;;;10.00;99.90;;;;;;5052086;28;20501;-85
2023/04/24 02:38:45;;;;;;;1.20;0.60;;;9.70;99.90;;;;;;5051678;28;20470;-86
2023/04/24 02:41:12;;;;;;;1.60;0.63;;;9.60;99.90;;;;;;5052074;28;20473;-85
2023/04/24 02:43:39;;;;;;;0.90;0.60;;;10.00;99.90;;;;;;5051590;28;21033;-86
2023/04/24 02:46:06;;;;;;;1.60;0.77;;;10.20;99.90;;;;;;5051930;28;20533;-85
2023/04/24 02:48:34;;;;;;;1.10;0.60;;;10.20;99.90;;;;;;5051988;28;20530;-85
2023/04/24 02:51:01;;;;;;;1.00;0.50;;;10.30;99.90;;;;;;5052058;28;20862;-85
2023/04/24 02:53:29;;;;;;;0.90;0.40;;;10.40;99.90;;;;;;5051984;28;20554;-86
2023/04/24 02:55:56;;;;;;;2.27;0.70;;;10.00;99.90;;;;;;5051984;28;20437;-86
2023/04/24 02:58:23;;;;;;;6.10;0.70;;;10.10;99.90;;;;;;5052477;28;20446;-86
2023/04/24 03:00:53;;;;;;;1.47;0.90;;;10.10;99.90;;;;;;5052098;28;20507;-85
2023/04/24 03:03:20;;;;;;;1.20;0.60;;;10.00;99.90;;;;;;5051660;28;20556;-86
2023/04/24 03:05:48;;;;;;;1.87;0.67;;;10.00;99.90;;;;;;5051580;28;20918;-85
2023/04/24 03:08:16;;;;;;;0.97;0.53;;;10.10;99.90;;;;;;5051753;28;20922;-85
2023/04/24 03:10:43;;;;;;;1.30;0.80;;;10.10;99.90;;;;;;5051793;28;20445;-85
2023/04/24 03:13:10;;;;;;;0.90;0.40;;;10.10;99.90;;;;;;5051720;28;20543;-86
2023/04/24 03:15:37;;;;;;;1.00;0.50;;;10.10;99.90;;;;;;5051597;28;20522;-86
2023/04/24 03:18:04;;;;;;;1.07;0.63;;;10.10;99.90;;;;;;5051180;28;20477;-86
2023/04/24 03:20:31;;;;;;;1.10;0.40;;;10.10;99.90;;;;;;5051936;28;20937;-86
2023/04/24 03:22:59;;;;;;;1.20;0.50;;;10.10;99.90;;;;;;5051744;28;20509;-86
2023/04/24 03:25:26;;;;;;;1.60;0.70;;;10.10;99.90;;;;;;5051239;28;20466;-86
2023/04/24 03:27:54;;;;;;;1.53;0.60;;;10.00;99.90;;;;;;5051287;28;20442;-86
2023/04/24 03:30:21;;;;;;;0.93;0.40;;;10.00;99.90;;;;;;5051178;28;20499;-86
2023/04/24 03:32:48;;;;;;;1.40;0.60;;;10.00;99.90;;;;;;5051598;28;20464;-86
2023/04/24 03:35:15;;;;;;;1.93;0.60;;;10.10;99.90;;;;;;5051614;28;20480;-85
2023/04/24 03:37:42;;;;;;;1.40;0.60;;;10.10;99.90;;;;;;5051609;28;20434;-86
2023/04/24 03:40:11;;;;;;;1.50;0.40;;;10.10;99.90;;;;;;5057620;28;20485;-85
2023/04/24 03:42:38;;;;;;;1.00;0.60;;;10.00;99.90;;;;;;5066091;28;20457;-87
2023/04/24 03:45:06;;;;;;;1.40;0.53;;;9.90;99.90;;;;;;5061495;28;20451;-85
2023/04/24 03:47:33;;;;;;;1.00;0.50;;;9.90;99.90;;;;;;5052990;28;20983;-86
2023/04/24 03:50:00;;;;;;;1.00;0.40;;;9.90;99.90;;;;;;5053138;28;20536;-86
2023/04/24 03:52:26;;;;;;;1.77;0.50;;;10.00;99.90;;;;;;5055261;28;20514;-86
2023/04/24 03:54:53;;;;;;;0.90;0.50;;;9.70;99.90;;;;;;5054817;28;20538;-86
2023/04/24 03:57:22;;;;;;;0.80;0.40;;;9.70;99.90;;;;;;5052806;28;20441;-86
2023/04/24 03:59:49;;;;;;;1.07;0.40;;;9.90;99.90;;;;;;5035580;28;20440;-86
2023/04/24 04:02:16;;;;;;;1.10;0.40;;;9.80;99.90;;;;;;5044711;28;20961;-86
2023/04/24 04:04:43;;;;;;;0.90;0.50;;;9.80;99.90;;;;;;5055364;28;20430;-86
2023/04/24 04:07:11;;;;;;;0.80;0.30;;;9.70;99.90;;;;;;5055230;28;20444;-86
2023/04/24 04:09:38;;;;;;;1.00;0.50;;;9.70;99.90;;;;;;5056300;28;20475;-87
2023/04/24 04:12:05;;;;;;;1.10;0.80;;;9.70;99.90;;;;;;5056945;28;20437;-86
2023/04/24 04:14:33;;;;;;;1.20;0.60;;;9.50;99.90;;;;;;5056582;28;20454;-86
2023/04/24 04:17:00;;;;;;;1.70;1.23;;;8.90;99.90;;;;;;5055957;28;20451;-85
2023/04/24 04:19:27;;;;;;;2.47;2.27;;;8.60;99.90;;;;;;5055643;28;20476;-85
2023/04/24 04:21:56;;;;;;;1.60;1.10;;;8.60;99.90;;;;;;5055635;28;20471;-85
2023/04/24 04:24:23;;;;;;;1.87;0.80;;;8.40;99.90;;;;;;5055503;28;20449;-85
2023/04/24 04:26:51;;;;;;;0.90;0.50;;;8.80;99.90;;;;;;5056900;28;20442;-85
2023/04/24 04:29:18;;;;;;;2.63;1.67;;;9.10;99.90;;;;;;5055597;28;20440;-85
2023/04/24 04:31:47;;;;;;;2.17;1.40;;;9.30;99.90;;;;;;5058091;28;20439;-86
2023/04/24 04:34:14;;;;;;;1.87;1.00;;;9.40;99.90;;;;;;5057467;28;20447;-86
2023/04/24 04:36:42;;;;;;;0.97;0.60;;;9.50;99.90;;;;;;5058080;28;20446;-84
2023/04/24 04:39:09;;;;;;;1.77;0.70;;;9.50;99.90;;;;;;5055128;28;20866;-85
2023/04/24 04:41:37;;;;;;;1.30;0.70;;;9.50;99.90;;;;;;5053310;28;20525;-85
2023/04/24 04:44:04;;;;;;;1.00;0.60;;;9.40;99.90;;;;;;5057541;28;20459;-86
2023/04/24 04:46:34;;;;;;;1.07;0.60;;;9.50;99.90;;;;;;5057511;28;20444;-85
2023/04/24 04:49:02;;;;;;;0.90;0.40;;;9.50;99.90;;;;;;5055491;28;20480;-86
2023/04/24 04:51:31;;;;;;;1.67;0.60;;;9.30;99.90;;;;;;5056426;28;20502;-88
2023/04/24 04:53:58;;;;;;;1.00;0.50;;;9.00;99.90;;;;;;5045876;28;20488;-88
2023/04/24 04:56:28;;;;;;;0.90;0.50;;;9.00;99.90;;;;;;5036762;28;20452;-88
2023/04/24 04:58:55;;;;;;;0.90;0.40;;;9.30;99.90;;;;;;5054399;28;20444;-88
2023/04/24 05:01:23;;;;;;;1.93;0.63;;;9.50;99.90;;;;;;5052789;28;20897;-88
2023/04/24 05:03:50;;;;;;;0.83;0.43;;;9.50;99.90;;;;;;5047275;28;20527;-86
2023/04/24 05:06:19;;;;;;;1.23;0.40;;;9.60;99.90;;;;;;5053105;28;20437;-87
2023/04/24 05:08:45;;;;;;;1.97;0.40;;;9.10;99.90;;;;;;5055364;28;20493;-87
2023/04/24 05:11:13;;;;;;;1.00;0.50;;;9.10;99.90;;;;;;5055101;28;20471;-87
2023/04/24 05:13:40;;;;;;;1.90;0.50;;;9.30;99.90;;;;;;5056685;28;20464;-87
2023/04/24 05:16:07;;;;;;;0.90;0.50;;;9.40;99.90;;;;;;5052446;28;20474;-85
2023/04/24 05:18:34;;;;;;;1.60;0.80;;;9.40;99.90;;;;;;5056898;28;20462;-85
2023/04/24 05:21:01;;;;;;;1.03;0.50;;;9.40;99.90;;;;;;5056224;28;20987;-87
2023/04/24 05:23:29;;;;;;;1.27;0.50;;;9.40;99.90;;;;;;5054857;28;20526;-86
2023/04/24 05:25:56;;;;;;;0.90;0.60;;;9.40;99.90;;;;;;5052125;28;20491;-85
2023/04/24 05:28:27;;;;;;;1.27;0.57;;;9.40;99.90;;;;;;5052458;28;20943;-85
2023/04/24 05:30:55;;;;;;;1.03;0.60;;;9.30;99.90;;;;;;5052546;28;20443;-85
2023/04/24 05:33:21;;;;;;;0.97;0.57;;;9.30;99.90;;;;;;5054069;28;20462;-86
2023/04/24 05:35:48;;;;;;;1.27;0.60;;;9.30;99.90;;;;;;5055149;28;20456;-85
2023/04/24 05:38:17;;;;;;;2.90;0.70;;;9.30;99.90;;;;;;5053495;28;20485;-86
2023/04/24 05:40:46;;;;;;;0.90;0.50;;;9.30;99.90;;;;;;5054248;28;20449;-86
2023/04/24 05:43:13;;;;;;;0.90;0.40;;;9.30;99.90;;;;;;5053461;28;20476;-85
2023/04/24 05:45:40;;;;;;;1.40;0.40;;;9.40;99.90;;;;;;5053248;28;20502;-87
2023/04/24 05:48:07;;;;;;;1.40;0.70;;;9.40;99.90;;;;;;5053127;28;20497;-87
2023/04/24 05:50:34;;;;;;;1.10;0.67;;;9.30;99.90;;;;;;5059299;28;20838;-87
2023/04/24 05:53:01;;;;;;;1.40;0.60;;;9.30;99.90;;;;;;5057570;28;20494;-87
2023/04/24 05:55:28;;;;;;;1.57;0.50;;;9.30;99.90;;;;;;5053310;28;20529;-87
2023/04/24 05:57:57;;;;;;;0.97;0.57;;;9.30;99.90;;;;;;5053211;28;20533;-87
2023/04/24 06:00:24;;;;;;;1.30;0.70;;;9.30;99.90;;;;;;5053070;28;21002;-87
2023/04/24 06:02:52;;;;;;;1.10;0.80;;;9.20;99.90;;;;;;5053082;28;20570;-87
2023/04/24 06:05:19;;;;;;;1.40;1.20;;;9.30;99.90;;;;;;5053085;28;20442;-87
2023/04/24 06:07:46;;;;;;;2.00;1.07;;;9.20;99.90;;;;;;5052717;28;20443;-87
2023/04/24 06:10:13;;;;;;;1.50;1.20;;;9.30;99.90;;;;;;5052634;28;21039;-87
2023/04/24 06:12:40;;;;;;;1.23;1.00;;;9.40;99.90;;;;;;5051990;28;20486;-87
2023/04/24 06:15:10;;;;;;;1.93;1.10;;;9.50;99.90;;;;;;5052872;28;20492;-87
2023/04/24 06:17:37;;;;;;;1.77;1.10;;;9.50;99.90;;;;;;5052612;28;20437;-87
2023/04/24 06:20:06;;;;;;;7.60;5.90;;;9.40;99.90;;;;;;5052015;28;20446;-87
2023/04/24 06:22:32;;;;;;;14.73;7.00;;;9.40;99.90;;;;;;5052250;28;20488;-88
2023/04/24 06:25:01;;;;;;;7.60;3.57;;;9.40;99.90;;;;;;5052740;28;20542;-87
2023/04/24 06:27:28;;;;;;;2.03;1.50;;;9.50;99.90;;;;;;5052192;28;20453;-88
2023/04/24 06:29:55;;;;;;;1.90;1.07;;;9.50;99.90;;;;;;5052050;28;20452;-87
2023/04/24 06:32:25;;;;;;;1.83;1.30;;;9.60;99.90;;;;;;5052459;28;20498;-88
2023/04/24 06:34:52;;;;;;;1.20;0.80;;;9.50;99.90;;;;;;5052208;28;20454;-87
2023/04/24 06:37:20;;;;;;;1.20;0.70;;;9.40;99.90;;;;;;5052053;28;20448;-87
2023/04/24 06:39:47;;;;;;;1.73;0.70;;;9.50;99.90;;;;;;5050336;28;20496;-88
2023/04/24 06:42:14;;;;;;;2.23;1.43;;;9.50;99.90;;;;;;5051070;28;20934;-87
2023/04/24 06:44:41;;;;;;;1.80;1.50;;;9.60;99.90;;;;;;5050963;28;20456;-87
2023/04/24 06:47:09;;;;;;;1.90;1.47;;;9.60;99.90;;;;;;5051647;28;20439;-87
2023/04/24 06:49:38;;;;;;;2.43;1.77;;;9.50;99.90;;;;;;5051967;28;20486;-87
2023/04/24 06:52:05;;;;;;;1.73;0.83;;;9.40;99.90;;;;;;5052148;28;20450;-87
2023/04/24 06:54:32;;;;;;;2.87;1.13;;;9.50;99.90;;;;;;5051314;28;20448;-87
2023/04/24 06:57:00;;;;;;;1.33;0.83;;;9.50;99.90;;;;;;5052097;28;20560;-87
2023/04/24 06:59:27;;;;;;;1.20;0.90;;;9.50;99.90;;;;;;5055182;28;20515;-87
2023/04/24 07:01:54;;;;;;;1.17;0.90;;;9.40;99.90;;;;;;5054186;28;20485;-87
2023/04/24 07:04:21;;;;;;;1.57;0.80;;;9.50;99.90;;;;;;5051653;28;20481;-87
2023/04/24 07:06:51;;;;;;;1.50;1.00;;;9.50;99.90;;;;;;5051797;28;20531;-87
2023/04/24 07:09:18;;;;;;;1.20;0.90;;;9.50;99.90;;;;;;5051564;28;20513;-87
2023/04/24 07:11:45;;;;;;;2.50;0.70;;;9.50;99.90;;;;;;5051366;28;20442;-87
2023/04/24 07:14:12;;;;;;;0.97;0.50;;;9.50;99.90;;;;;;5051225;28;20472;-87
2023/04/24 07:16:39;;;;;;;3.40;0.90;;;9.40;99.90;;;;;;5051712;28;20530;-87
2023/04/24 07:19:06;;;;;;;1.30;1.00;;;9.50;99.90;;;;;;5073671;23;20452;-55
2023/04/24 07:21:33;;;;;;;1.43;0.90;;;9.60;99.90;;;;;;5111226;28;20516;-53
2023/04/24 07:24:02;;;;;;;1.40;1.20;;;9.60;99.90;;;;;;5111213;28;20520;-53
2023/04/24 07:26:30;;;;;;;3.13;1.00;;;9.60;99.90;;;;;;5126801;28;20836;-54
2023/04/24 07:28:57;;;;;;;1.97;0.70;;;9.60;99.90;;;;;;5131204;27;20514;-54
2023/04/24 07:31:24;;;;;;;1.27;0.80;;;9.60;99.90;;;;;;5130869;27;20476;-53
2023/04/24 07:33:51;;;;;;;1.10;0.80;;;9.50;99.90;;;;;;5132600;27;20477;-53
2023/04/24 07:36:19;;;;;;;1.33;0.90;;;9.40;99.90;;;;;;5131628;27;20496;-53
2023/04/24 07:38:46;;;;;;;1.43;1.13;;;9.50;99.90;;;;;;5131595;27;20876;-53
2023/04/24 07:41:14;;;;;;;1.20;0.80;;;9.60;99.90;;;;;;5131865;27;20477;-53
2023/04/24 07:43:41;;;;;;;1.10;1.00;;;9.60;99.90;;;;;;5131688;27;20444;-55
2023/04/24 07:46:08;;;;;;;1.70;1.00;;;9.70;99.90;;;;;;5131816;27;20483;-53
2023/04/24 07:48:35;;;;;;;1.23;0.70;;;9.70;99.90;;;;;;5131609;27;20540;-55
2023/04/24 07:51:02;;;;;;;1.00;0.70;;;9.70;99.90;;;;;;5131997;27;20527;-53
2023/04/24 07:53:29;;;;;;;1.70;1.30;;;9.70;99.90;;;;;;5132025;27;20988;-53
2023/04/24 07:55:56;;;;;;;1.73;1.40;;;9.70;99.90;;;;;;5131858;27;20879;-52
2023/04/24 07:58:25;;;;;;;2.03;1.43;;;9.70;99.90;;;;;;5131882;27;20468;-51
2023/04/24 08:00:52;;;;;;;2.70;1.53;;;9.70;99.90;;;;;;5131803;27;20490;-50
2023/04/24 08:03:19;;;;;;;2.27;2.07;;;9.70;99.90;;;;;;5131428;27;20503;-51
2023/04/24 08:05:47;;;;;;;2.53;1.83;;;9.70;99.90;;;;;;5130942;27;20455;-51
2023/04/24 08:08:14;;;;;;;1.43;1.20;;;9.70;99.90;;;;;;5131786;27;20474;-53
2023/04/24 08:10:41;;;;;;;1.63;1.10;;;9.60;99.90;;;;;;5131818;27;20455;-51
2023/04/24 08:13:08;;;;;;;1.67;1.57;;;9.70;99.90;;;;;;5131461;27;20531;-53
2023/04/24 08:15:36;;;;;;;1.47;1.10;;;9.70;99.90;;;;;;5131380;27;20993;-52
2023/04/24 08:18:03;;;;;;;1.73;1.60;;;9.60;99.90;;;;;;5131431;27;20466;-54
2023/04/24 08:20:30;;;;;;;1.93;1.30;;;9.60;99.90;;;;;;5131261;27;20481;-50
2023/04/24 08:22:57;;;;;;;3.30;2.30;;;9.70;99.90;;;;;;5131526;27;20601;-54
2023/04/24 08:25:24;;;;;;;2.10;1.90;;;9.80;99.90;;;;;;5131147;27;20522;-51
2023/04/24 08:27:51;;;;;;;1.60;1.10;;;9.90;99.90;;;;;;5130821;27;20967;-51
2023/04/24 08:30:18;;;;;;;1.77;1.67;;;10.00;99.90;;;;;;5130909;27;20471;-50
2023/04/24 08:32:47;;;;;;;3.80;2.90;;;9.90;99.90;;;;;;5130178;27;20757;-51
2023/04/24 08:35:14;;;;;;;2.10;1.90;;;10.00;99.90;;;;;;5131677;27;20491;-50
2023/04/24 08:37:40;;;;;;;3.27;2.97;;;10.00;99.90;;;;;;5134091;27;20447;-53
2023/04/24 08:40:14;;;;;;;2.03;1.20;;;10.10;99.90;;;;;;5134942;27;21037;-51
2023/04/24 08:42:43;;;;;;;2.10;1.90;;;10.00;99.90;;;;;;5134717;27;20476;-51
2023/04/24 08:45:11;;;;;;;1.80;1.60;;;10.00;99.90;;;;;;5134713;27;20843;-50
2023/04/24 08:47:39;;;;;;;1.50;1.27;;;10.00;99.90;;;;;;5134666;27;20811;-51
2023/04/24 08:50:09;;;;;;;1.60;1.40;;;10.10;99.90;;;;;;5134929;27;20539;-51
2023/04/24 08:52:36;;;;;;;1.87;1.60;;;10.10;99.90;;;;;;5134645;27;20819;-51
2023/04/24 08:55:04;;;;;;;2.07;1.70;;;10.30;99.90;;;;;;5134666;27;20487;-51
2023/04/24 08:57:31;;;;;;;2.60;2.40;;;10.20;99.90;;;;;;5134976;27;20481;-51
2023/04/24 08:59:59;;;;;;;2.50;1.73;;;10.20;99.90;;;;;;5134541;27;20527;-51
2023/04/24 09:02:27;;;;;;;1.97;1.60;;;10.20;99.90;;;;;;5134505;27;20571;-52
2023/04/24 09:04:54;;;;;;;1.50;1.40;;;10.30;99.90;;;;;;5134022;27;20532;-50
2023/04/24 09:07:25;;;;;;;8.17;4.80;;;10.30;99.90;;;;;;5134380;27;20448;-50
2023/04/24 09:09:52;;;;;;;2.40;1.63;;;10.20;99.90;;;;;;5133178;27;20443;-50
2023/04/24 09:12:20;;;;;;;2.67;1.40;;;10.20;99.90;;;;;;5134526;27;20810;-50
2023/04/24 09:14:46;;;;;;;2.10;1.73;;;10.30;99.90;;;;;;5134082;27;20475;-51
2023/04/24 09:17:14;;;;;;;1.77;1.33;;;10.10;99.90;;;;;;5134269;27;20457;-50
2023/04/24 09:19:41;;;;;;;2.93;1.97;;;10.10;99.90;;;;;;5133820;27;20452;-50
2023/04/24 09:22:08;;;;;;;2.43;1.60;;;10.30;99.90;;;;;;5133936;27;20511;-52
2023/04/24 09:24:37;;;;;;;2.20;2.00;;;10.40;99.90;;;;;;5133234;27;20532;-50
2023/04/24 09:27:05;;;;;;;3.13;1.80;;;10.40;99.90;;;;;;5133326;27;20473;-50
2023/04/24 09:29:32;;;;;;;1.60;1.33;;;10.60;99.90;;;;;;5133439;27;20447;-50
2023/04/24 09:32:00;;;;;;;1.40;1.23;;;10.60;99.90;;;;;;5133209;27;20444;-51
2023/04/24 09:34:28;;;;;;;1.67;1.20;;;10.60;99.90;;;;;;5134017;27;20528;-51
2023/04/24 09:36:55;;;;;;;1.50;1.30;;;10.60;99.90;;;;;;5133663;27;20546;-50
2023/04/24 09:39:22;;;;;;;2.33;1.67;;;10.60;99.90;;;;;;5133708;27;20441;-50
2023/04/24 09:41:52;;;;;;;4.40;1.67;;;10.70;99.90;;;;;;5133663;27;20540;-53
2023/04/24 09:44:21;;;;;;;2.17;1.30;;;10.80;99.90;;;;;;5133751;27;20440;-50
2023/04/24 09:46:51;;;;;;;1.53;1.30;;;10.80;99.90;;;;;;5133327;27;20476;-50
2023/04/24 09:49:24;;;;;;;1.93;1.50;;;11.00;99.90;;;;;;5133642;27;20445;-51
2023/04/24 09:51:52;;;;;;;2.00;1.27;;;11.00;99.90;;;;;;5133865;27;20440;-50
2023/04/24 09:54:20;;;;;;;1.47;0.90;;;11.00;99.90;;;;;;5133774;27;20862;-50
2023/04/24 09:56:50;;;;;;;1.50;1.00;;;10.70;99.90;;;;;;5133233;27;20495;-52
2023/04/24 09:59:20;;;;;;;1.50;1.20;;;10.40;99.90;;;;;;5133329;27;21015;-50
2023/04/24 10:01:49;;;;;;;2.13;1.30;;;10.50;99.90;;;;;;5133032;27;20964;-50
2023/04/24 10:04:20;;;;;;;1.20;0.90;;;10.50;99.90;;;;;;5133324;27;20426;-50
2023/04/24 10:06:48;;;;;;;4.07;1.70;;;10.50;99.90;;;;;;5133338;27;21027;-50
2023/04/24 10:09:16;;;;;;;1.77;1.30;;;10.80;99.90;;;;;;5133234;27;20445;-50
2023/04/24 10:11:44;;;;;;;1.73;1.23;;;10.90;99.90;;;;;;5132487;27;20515;-50
2023/04/24 10:14:14;;;;;;;2.40;1.50;;;10.90;99.90;;;;;;5132709;27;20432;-50
2023/04/24 10:16:44;;;;;;;3.93;1.57;;;10.90;99.90;;;;;;5132966;27;20452;-50
2023/04/24 10:19:12;;;;;;;1.33;1.23;;;11.00;99.90;;;;;;5131985;27;20540;-51
2023/04/24 10:21:42;;;;;;;1.10;0.90;;;11.00;99.90;;;;;;5132812;27;20443;-51
2023/04/24 10:24:09;;;;;;;2.90;1.70;;;11.00;99.90;;;;;;5132549;27;20530;-50
2023/04/24 10:26:37;;;;;;;2.13;1.03;;;11.00;99.90;;;;;;5132277;27;20456;-50
2023/04/24 10:29:09;;;;;;;1.90;1.33;;;11.10;99.90;;;;;;5131368;27;20447;-51
2023/04/24 10:31:38;;;;;;;2.20;2.00;;;11.20;99.90;;;;;;5129400;27;20462;-50
2023/04/24 10:34:06;;;;;;;3.30;1.70;;;11.20;99.90;;;;;;5132530;27;20521;-50
2023/04/24 10:36:34;;;;;;;2.03;1.30;;;11.20;99.90;;;;;;5132668;27;20460;-50
2023/04/24 10:39:04;;;;;;;2.20;1.60;;;11.20;99.90;;;;;;5132151;27;20480;-50
2023/04/24 10:41:31;;;;;;;2.50;1.60;;;11.20;99.90;;;;;;5132134;27;20431;-50
2023/04/24 10:44:09;;;;;;;3.17;2.30;;;11.30;99.90;;;;;;5130713;27;20509;-51
2023/04/24 10:46:38;;;;;;;1.77;1.20;;;11.30;99.90;;;;;;5131695;27;20466;-51
2023/04/24 10:49:08;;;;;;;1.87;0.97;;;11.20;99.90;;;;;;5131778;27;20494;-51
2023/04/24 10:51:47;;;;;;;1.90;1.20;;;11.00;99.90;;;;;;5132260;27;21080;-50
2023/04/24 10:54:25;;;;;;;1.10;0.73;;;11.00;99.90;;;;;;5131937;27;20927;-48
2023/04/24 10:56:52;;;;;;;1.60;0.93;;;11.20;99.90;;;;;;5131387;27;20457;-55
2023/04/24 10:59:25;;;;;;;2.27;1.23;;;11.20;99.90;;;;;;5131700;27;20537;-53
2023/04/24 11:01:56;;;;;;;2.23;1.23;;;11.20;99.90;;;;;;5132292;27;20808;-51
2023/04/24 11:04:34;;;;;;;1.90;1.47;;;11.30;99.90;;;;;;5132215;27;20488;-50
2023/04/24 11:07:03;;;;;;;1.93;1.20;;;11.30;99.90;;;;;;5131770;27;20893;-51
2023/04/24 11:09:32;;;;;;;2.43;2.00;;;11.40;99.90;;;;;;5131920;27;20872;-51
2023/04/24 11:12:10;;;;;;;1.93;0.97;;;11.30;99.90;;;;;;5130399;27;20931;-52
2023/04/24 11:15:01;;;;;;;1.80;1.30;;;11.30;99.90;;;;;;5128702;27;20447;-50
2023/04/24 11:17:34;;;;;;;1.40;1.20;;;10.90;99.90;;;;;;5131545;27;20438;-51
2023/04/24 11:20:06;;;;;;;1.63;1.10;;;11.20;99.90;;;;;;5131527;27;20450;-51
2023/04/24 11:22:35;;;;;;;1.90;1.50;;;11.20;99.90;;;;;;5131131;27;20440;-50
2023/04/24 11:25:03;;;;;;;1.73;1.30;;;11.40;99.90;;;;;;5131460;27;20969;-51
2023/04/24 11:27:32;;;;;;;1.53;1.43;;;11.60;99.90;;;;;;5131051;27;20494;-51
2023/04/24 11:30:04;;;;;;;1.97;1.63;;;11.60;99.90;;;;;;5131463;27;20438;-51
2023/04/24 11:32:36;;;;;;;3.37;2.73;;;11.60;99.90;;;;;;5131913;27;20474;-51
2023/04/24 11:35:07;;;;;;;7.40;5.03;;;11.70;99.90;;;;;;5132020;27;20454;-51
2023/04/24 11:37:38;;;;;;;2.53;2.20;;;11.80;99.90;;;;;;5131426;27;20445;-51
2023/04/24 11:40:08;;;;;;;3.30;1.77;;;11.90;99.90;;;;;;5132077;27;20529;-51
2023/04/24 11:42:35;;;;;;;2.10;1.60;;;12.00;99.90;;;;;;5131456;27;20516;-50
2023/04/24 11:45:03;;;;;;;4.83;1.70;;;11.90;99.90;;;;;;5132069;27;20501;-51
2023/04/24 11:47:33;;;;;;;1.97;1.70;;;12.00;99.90;;;;;;5131643;27;20470;-51
2023/04/24 11:50:01;;;;;;;5.27;3.37;;;12.10;99.90;;;;;;5131351;27;20851;-51
2023/04/24 11:52:28;;;;;;;3.10;1.67;;;12.10;99.90;;;;;;5132005;27;20441;-51
2023/04/24 11:54:55;;;;;;;5.17;3.90;;;12.10;99.90;;;;;;5131960;27;20466;-51
2023/04/24 11:57:23;;;;;;;2.23;1.40;;;12.10;99.90;;;;;;5131664;27;20465;-51
2023/04/24 11:59:50;;;;;;;3.50;2.20;;;12.10;99.90;;;;;;5129885;27;20450;-53
2023/04/24 12:02:24;;;;;;;1.10;0.80;;;12.20;99.90;;;;;;5131724;27;20469;-51
2023/04/24 12:04:53;;;;;;;1.13;0.73;;;12.00;99.90;;;;;;5131594;27;20525;-51
2023/04/24 12:07:20;;;;;;;1.47;1.00;;;11.90;99.90;;;;;;5131339;27;20945;-50
2023/04/24 12:09:48;;;;;;;1.80;1.40;;;12.10;99.90;;;;;;5131695;27;20481;-51
2023/04/24 12:12:16;;;;;;;1.93;0.93;;;12.20;99.90;;;;;;5133933;27;20944;-51
2023/04/24 12:14:54;;;;;;;2.53;1.73;;;12.20;99.90;;;;;;5135325;27;20948;-51
2023/04/24 12:17:26;;;;;;;1.30;1.20;;;12.20;99.90;;;;;;5135438;27;20476;-51
2023/04/24 12:19:59;;;;;;;2.20;0.80;;;12.30;99.90;;;;;;5134641;27;20454;-51
2023/04/24 12:22:26;;;;;;;1.10;0.70;;;12.30;99.90;;;;;;5135425;27;20442;-51
2023/04/24 12:25:03;;;;;;;1.93;1.13;;;12.10;99.90;;;;;;5134887;27;20836;-51
2023/04/24 12:27:32;;;;;;;0.90;0.50;;;11.70;99.90;;;;;;5134844;27;20448;-51
2023/04/24 12:30:01;;;;;;;0.90;0.60;;;11.90;99.90;;;;;;5134391;27;20441;-52
2023/04/24 12:32:28;;;;;;;1.50;0.90;;;11.80;99.90;;;;;;5135350;27;20447;-52
2023/04/24 12:34:57;;;;;;;1.30;0.67;;;11.80;99.90;;;;;;5134834;27;20999;-51
2023/04/24 12:37:25;;;;;;;1.30;0.90;;;11.70;99.90;;;;;;5134190;27;20484;-53
2023/04/24 12:40:03;;;;;;;1.30;0.87;;;11.70;99.90;;;;;;5135163;27;20444;-52
2023/04/24 12:42:31;;;;;;;1.33;0.80;;;11.60;99.90;;;;;;5134718;27;20971;-51
2023/04/24 12:45:00;;;;;;;1.50;0.97;;;11.60;99.90;;;;;;5134952;27;20557;-51
2023/04/24 12:47:27;;;;;;;1.20;0.70;;;11.70;99.90;;;;;;5135229;27;20442;-52
2023/04/24 12:49:55;;;;;;;1.60;1.00;;;11.70;99.90;;;;;;5134479;27;20963;-51
2023/04/24 12:52:23;;;;;;;1.13;0.80;;;11.70;99.90;;;;;;5134716;27;20456;-51
2023/04/24 12:54:50;;;;;;;1.00;0.70;;;11.80;99.90;;;;;;5134743;27;20437;-51